Kystovka, Russia
Current Conditions -  °F | °C
As of 8:00 AM on Sunday 26 Oct 2014 (Local Time) from UNOO Reporting Station
Clear Clear  
Wind Chill: -8°   Ceiling: Unl
Heat Index:   Visibility: 6mi
Dew Point:   Wind: 4mph
Humidity: 92%   Direction: 240°WSW
Pressure: 29.91"   Gusts: NA
Location:  56.6°N, 76.9°E
Report Text: UNOO 260100Z 24002MPS CAVOK M17/M18 Q1013 25CLRD60 NOSIG RMKQFE752
Loading
Personal Weather Stations






























Interactive Weather Map
Tropical Storm Tracking
New forecast layout! Learn more

10-Day Weather Forecast

Advertisements
Track Severe Weather on mobile